createdAt,value
2018-09-28T00:00:16.981Z,18.00
2018-09-28T00:02:45.074Z,18.00
2018-09-28T00:05:13.367Z,18.00
2018-09-28T00:07:41.354Z,18.00
2018-09-28T00:10:09.428Z,18.00
2018-09-28T00:12:37.568Z,18.00
2018-09-28T00:15:05.637Z,18.00
2018-09-28T00:17:33.583Z,18.00
2018-09-28T00:20:01.573Z,18.00
2018-09-28T00:22:29.650Z,18.00
2018-09-28T00:24:57.650Z,18.00
2018-09-28T00:27:25.604Z,17.90
2018-09-28T00:29:53.777Z,17.90
2018-09-28T00:32:21.839Z,17.90
2018-09-28T00:34:49.804Z,17.90
2018-09-28T00:37:17.841Z,17.90
2018-09-28T00:39:45.861Z,17.90
2018-09-28T00:42:13.825Z,17.80
2018-09-28T00:44:41.834Z,17.80
2018-09-28T00:47:09.762Z,17.80
2018-09-28T00:49:37.735Z,17.80
2018-09-28T00:52:05.696Z,17.80
2018-09-28T00:54:33.700Z,17.80
2018-09-28T00:57:01.652Z,17.80
2018-09-28T00:59:29.706Z,17.80
2018-09-28T01:01:57.814Z,17.80
2018-09-28T01:04:25.805Z,17.80
2018-09-28T01:06:53.756Z,17.80
2018-09-28T01:09:21.796Z,17.80
2018-09-28T01:11:50.177Z,17.80
2018-09-28T01:14:18.260Z,17.70
2018-09-28T01:16:47.083Z,17.70
2018-09-28T01:19:15.047Z,17.70
2018-09-28T01:21:43.033Z,17.70
2018-09-28T01:24:14.267Z,17.70
2018-09-28T01:26:42.243Z,17.60
2018-09-28T01:29:10.483Z,17.60
2018-09-28T01:31:38.558Z,17.60
2018-09-28T01:34:06.585Z,17.60
2018-09-28T01:36:34.675Z,17.60
2018-09-28T01:39:02.661Z,17.60
2018-09-28T01:41:30.629Z,17.50
2018-09-28T01:43:58.730Z,17.50
2018-09-28T01:46:26.659Z,17.50
2018-09-28T01:48:54.722Z,17.50
2018-09-28T01:51:22.662Z,17.50
2018-09-28T01:53:50.593Z,17.40
2018-09-28T01:56:18.599Z,17.40
2018-09-28T01:58:46.614Z,17.40
2018-09-28T02:01:14.589Z,17.40
2018-09-28T02:03:42.624Z,17.40
2018-09-28T02:06:10.628Z,17.40
2018-09-28T02:08:38.718Z,17.40
2018-09-28T02:11:06.671Z,17.30
2018-09-28T02:13:34.746Z,17.40
2018-09-28T02:16:02.806Z,17.30
2018-09-28T02:18:30.828Z,17.30
2018-09-28T02:20:58.772Z,17.30
2018-09-28T02:23:26.832Z,17.30
2018-09-28T02:25:54.898Z,17.30
2018-09-28T02:28:22.904Z,17.30
2018-09-28T02:30:50.907Z,17.20
2018-09-28T02:33:18.977Z,17.20
2018-09-28T02:35:47.003Z,17.20
2018-09-28T02:38:15.060Z,17.20
2018-09-28T02:40:43.132Z,17.10
2018-09-28T02:43:14.696Z,17.10
2018-09-28T02:45:42.753Z,17.00
2018-09-28T02:48:10.719Z,17.00
2018-09-28T02:50:38.775Z,17.00
2018-09-28T02:53:06.819Z,17.00
2018-09-28T02:55:34.863Z,17.00
2018-09-28T02:58:02.789Z,17.00
2018-09-28T03:00:30.749Z,16.90
2018-09-28T03:02:58.745Z,16.90
2018-09-28T03:05:26.835Z,16.90
2018-09-28T03:07:54.831Z,16.90
2018-09-28T03:10:22.857Z,16.80
2018-09-28T03:12:50.904Z,16.70
2018-09-28T03:15:18.901Z,16.70
2018-09-28T03:17:46.851Z,16.70
2018-09-28T03:20:14.850Z,16.80
2018-09-28T03:22:42.814Z,16.80
2018-09-28T03:25:11.183Z,16.70
2018-09-28T03:27:39.115Z,16.70
2018-09-28T03:30:07.466Z,16.70
2018-09-28T03:32:35.932Z,16.70
2018-09-28T03:35:04.280Z,16.80
2018-09-28T03:37:32.273Z,16.70
2018-09-28T03:40:00.352Z,16.60
2018-09-28T03:42:28.415Z,16.60
2018-09-28T03:44:56.457Z,16.50
2018-09-28T03:47:24.519Z,16.50
2018-09-28T03:49:52.528Z,16.60
2018-09-28T03:52:20.502Z,16.50
2018-09-28T03:54:48.468Z,16.50
2018-09-28T03:57:16.609Z,16.40
2018-09-28T03:59:44.610Z,16.40
2018-09-28T04:02:12.685Z,16.30
2018-09-28T04:04:40.696Z,16.40
2018-09-28T04:07:08.690Z,16.40
2018-09-28T04:09:37.127Z,16.40
2018-09-28T04:12:05.079Z,16.40
2018-09-28T04:14:33.161Z,16.30
2018-09-28T04:17:01.198Z,16.30
2018-09-28T04:19:29.169Z,16.40
2018-09-28T04:21:59.137Z,16.30
2018-09-28T04:24:27.841Z,16.30
2018-09-28T04:26:56.239Z,16.30
2018-09-28T04:29:24.666Z,16.20
2018-09-28T04:31:53.002Z,16.20
2018-09-28T04:34:21.106Z,16.20
2018-09-28T04:36:49.491Z,16.20
2018-09-28T04:39:17.561Z,16.10
2018-09-28T04:41:45.633Z,16.10
2018-09-28T04:44:13.684Z,16.20
2018-09-28T04:46:41.823Z,16.20
2018-09-28T04:49:09.856Z,16.20
2018-09-28T04:51:38.026Z,16.20
2018-09-28T04:54:06.362Z,16.20
2018-09-28T04:56:34.581Z,16.20
2018-09-28T04:59:02.545Z,16.20
2018-09-28T05:01:30.623Z,16.10
2018-09-28T05:03:58.605Z,16.20
2018-09-28T05:06:26.673Z,16.20
2018-09-28T05:08:54.683Z,16.20
2018-09-28T05:11:22.918Z,16.30
2018-09-28T05:13:50.983Z,16.30
2018-09-28T05:16:19.252Z,16.30
2018-09-28T05:18:47.289Z,16.30
2018-09-28T05:21:15.303Z,16.30
2018-09-28T05:23:43.588Z,16.30
2018-09-28T05:26:11.542Z,16.30
2018-09-28T05:28:39.613Z,16.30
2018-09-28T05:31:07.891Z,16.20
2018-09-28T05:33:35.959Z,16.20
2018-09-28T05:36:03.981Z,16.10
2018-09-28T05:38:31.926Z,16.10
2018-09-28T05:40:59.938Z,16.20
2018-09-28T05:43:27.989Z,16.10
2018-09-28T05:45:56.028Z,16.10
2018-09-28T05:48:23.964Z,16.10
2018-09-28T05:50:52.666Z,16.00
2018-09-28T05:53:20.745Z,16.00
2018-09-28T05:55:48.862Z,16.00
2018-09-28T05:58:22.336Z,16.00
2018-09-28T06:00:55.789Z,16.00
2018-09-28T06:03:23.859Z,16.10
2018-09-28T06:05:57.593Z,16.00
2018-09-28T06:08:25.680Z,16.00
2018-09-28T06:10:53.816Z,16.00
2018-09-28T06:13:22.261Z,16.10
2018-09-28T06:15:50.596Z,16.10
2018-09-28T06:18:18.779Z,16.20
2018-09-28T06:20:47.068Z,16.10
2018-09-28T06:23:15.082Z,16.10
2018-09-28T06:25:43.201Z,16.10
2018-09-28T06:28:11.477Z,16.00
2018-09-28T06:30:39.664Z,16.10
2018-09-28T06:33:07.654Z,16.10
2018-09-28T06:35:35.932Z,16.10
2018-09-28T06:38:03.847Z,16.10
2018-09-28T06:40:31.948Z,16.00
2018-09-28T06:42:59.971Z,16.00
2018-09-28T06:45:27.972Z,15.90
2018-09-28T06:47:56.064Z,15.90
2018-09-28T06:50:23.950Z,16.00
2018-09-28T06:52:52.005Z,15.90
2018-09-28T06:55:20.353Z,15.90
2018-09-28T06:57:48.526Z,15.80
2018-09-28T07:00:16.617Z,15.80
2018-09-28T07:02:44.600Z,15.80
2018-09-28T07:05:12.677Z,15.80
2018-09-28T07:07:40.640Z,15.80
2018-09-28T07:10:08.695Z,15.80
2018-09-28T07:12:36.759Z,15.70
2018-09-28T07:15:08.870Z,15.60
2018-09-28T07:17:36.878Z,15.70
2018-09-28T07:20:05.224Z,15.70
2018-09-28T07:22:33.254Z,15.70
2018-09-28T07:25:01.640Z,15.70
2018-09-28T07:27:29.661Z,15.50
2018-09-28T07:29:57.786Z,15.50
2018-09-28T07:32:25.916Z,15.40
2018-09-28T07:34:54.329Z,15.50
2018-09-28T07:37:22.286Z,15.50
2018-09-28T07:39:50.313Z,15.50
2018-09-28T07:42:18.408Z,15.50
2018-09-28T07:44:46.688Z,15.50
2018-09-28T07:47:14.793Z,15.50
2018-09-28T07:49:42.970Z,15.50
2018-09-28T07:52:11.018Z,15.50
2018-09-28T07:54:39.099Z,15.40
2018-09-28T07:57:07.065Z,15.50
2018-09-28T07:59:35.380Z,15.40
2018-09-28T08:02:03.327Z,15.50
2018-09-28T08:04:31.373Z,15.60
2018-09-28T08:06:59.368Z,15.70
2018-09-28T08:09:27.436Z,15.70
2018-09-28T08:11:55.470Z,15.60
2018-09-28T08:14:23.495Z,15.60
2018-09-28T08:16:51.520Z,15.70
2018-09-28T08:19:19.584Z,15.60
2018-09-28T08:21:47.527Z,15.50
2018-09-28T08:24:15.565Z,15.50
2018-09-28T08:26:43.649Z,15.40
2018-09-28T08:29:11.659Z,15.50
2018-09-28T08:31:39.664Z,15.50
2018-09-28T08:34:07.686Z,15.70
2018-09-28T08:36:35.717Z,15.70
2018-09-28T08:39:05.306Z,15.80
2018-09-28T08:41:33.442Z,15.90
2018-09-28T08:44:01.444Z,15.90
2018-09-28T08:46:29.576Z,15.90
2018-09-28T08:48:57.699Z,15.90
2018-09-28T08:51:25.795Z,15.90
2018-09-28T08:53:53.942Z,16.00
2018-09-28T08:56:22.011Z,16.00
2018-09-28T08:58:50.009Z,16.10
2018-09-28T09:01:18.006Z,16.10
2018-09-28T09:03:46.062Z,16.10
2018-09-28T09:06:13.997Z,16.10
2018-09-28T09:08:42.143Z,16.10
2018-09-28T09:11:10.120Z,16.10
2018-09-28T09:13:38.419Z,16.10
2018-09-28T09:16:06.708Z,16.00
2018-09-28T09:18:34.795Z,16.00
2018-09-28T09:21:02.869Z,15.90
2018-09-28T09:23:30.933Z,16.00
2018-09-28T09:25:58.985Z,15.90
2018-09-28T09:28:27.128Z,15.90
2018-09-28T09:30:55.325Z,15.90
2018-09-28T09:33:23.327Z,15.90
2018-09-28T09:35:51.572Z,16.00
2018-09-28T09:38:19.568Z,16.00
2018-09-28T09:40:47.644Z,16.00
2018-09-28T09:43:15.817Z,15.90
2018-09-28T09:45:43.769Z,15.90
2018-09-28T09:48:11.827Z,15.70
2018-09-28T09:50:39.795Z,15.70
2018-09-28T09:53:07.961Z,15.80
2018-09-28T09:55:35.897Z,15.80
2018-09-28T09:58:03.929Z,15.90
2018-09-28T10:00:37.455Z,15.90
2018-09-28T10:03:10.901Z,15.80
2018-09-28T10:05:38.871Z,15.80
2018-09-28T10:08:06.959Z,15.80
2018-09-28T10:10:35.601Z,15.70
2018-09-28T10:13:03.660Z,15.80
2018-09-28T10:15:32.852Z,15.80
2018-09-28T10:18:00.854Z,15.70
2018-09-28T10:20:28.888Z,15.80
2018-09-28T10:22:56.962Z,15.90
2018-09-28T10:25:25.021Z,15.80
2018-09-28T10:27:53.178Z,15.80
2018-09-28T10:30:21.192Z,15.90
2018-09-28T10:32:49.156Z,15.80
2018-09-28T10:35:17.194Z,15.70
2018-09-28T10:37:45.292Z,15.80
2018-09-28T10:40:13.303Z,15.90
2018-09-28T10:42:41.442Z,16.00
2018-09-28T10:45:09.504Z,16.00
2018-09-28T10:47:37.594Z,16.00
2018-09-28T10:50:05.856Z,16.00
2018-09-28T10:52:33.959Z,16.00
2018-09-28T10:55:02.271Z,16.00
2018-09-28T10:57:30.268Z,16.00
2018-09-28T10:59:58.175Z,15.90
2018-09-28T11:02:26.160Z,15.90
2018-09-28T11:04:54.154Z,15.90
2018-09-28T11:07:22.108Z,16.00
2018-09-28T11:09:50.200Z,16.10
2018-09-28T11:12:18.164Z,16.10
2018-09-28T11:14:46.295Z,16.10
2018-09-28T11:17:15.071Z,16.10
2018-09-28T11:19:43.227Z,16.20
2018-09-28T11:22:11.379Z,16.10
2018-09-28T11:24:39.650Z,16.20
2018-09-28T11:27:07.853Z,16.20
2018-09-28T11:29:35.880Z,16.20
2018-09-28T11:32:03.896Z,16.40
2018-09-28T11:34:32.068Z,16.40
2018-09-28T11:37:00.035Z,16.40
2018-09-28T11:39:28.178Z,16.40
2018-09-28T11:41:57.623Z,16.40
2018-09-28T11:44:25.621Z,16.40
2018-09-28T11:46:54.601Z,16.50
2018-09-28T11:49:23.300Z,16.60
2018-09-28T11:51:51.370Z,16.60
2018-09-28T11:54:19.345Z,16.60
2018-09-28T11:56:47.312Z,16.60
2018-09-28T11:59:15.560Z,16.50
2018-09-28T12:01:43.595Z,16.50
2018-09-28T12:04:11.577Z,16.40
2018-09-28T12:06:39.693Z,16.30
2018-09-28T12:09:09.067Z,16.50
2018-09-28T12:11:37.122Z,16.50
2018-09-28T12:14:05.067Z,16.40
2018-09-28T12:16:33.027Z,16.40
2018-09-28T12:19:00.983Z,16.50
2018-09-28T12:21:28.999Z,16.50
2018-09-28T12:23:57.515Z,16.50
2018-09-28T12:26:25.450Z,16.40
2018-09-28T12:28:53.487Z,16.50
2018-09-28T12:31:21.441Z,16.50
2018-09-28T12:33:49.493Z,16.60
2018-09-28T12:36:17.408Z,16.40
2018-09-28T12:38:45.619Z,16.40
2018-09-28T12:41:13.551Z,16.40
2018-09-28T12:43:41.592Z,16.30
2018-09-28T12:46:09.564Z,16.40
2018-09-28T12:48:37.624Z,16.50
2018-09-28T12:51:05.998Z,16.50
2018-09-28T12:53:34.081Z,16.60
2018-09-28T12:56:02.034Z,16.50
2018-09-28T12:58:30.088Z,16.40
2018-09-28T13:00:58.137Z,16.40
2018-09-28T13:03:25.991Z,16.40
2018-09-28T13:05:53.961Z,16.50
2018-09-28T13:08:22.056Z,16.60
2018-09-28T13:10:50.167Z,16.60
2018-09-28T13:13:19.370Z,16.60
2018-09-28T13:15:47.852Z,16.50
2018-09-28T13:18:15.872Z,16.50
2018-09-28T13:20:43.978Z,16.50
2018-09-28T13:23:12.063Z,16.40
2018-09-28T13:25:40.136Z,16.40
2018-09-28T13:28:08.268Z,16.50
2018-09-28T13:30:36.627Z,16.50
2018-09-28T13:33:04.872Z,16.60
2018-09-28T13:35:32.842Z,16.70
2018-09-28T13:38:00.920Z,16.70
2018-09-28T13:40:29.082Z,16.70
2018-09-28T13:42:57.828Z,16.70
2018-09-28T13:45:25.937Z,16.90
2018-09-28T13:47:53.978Z,16.80
2018-09-28T13:50:22.098Z,16.80
2018-09-28T13:52:50.241Z,16.60
2018-09-28T13:55:18.826Z,16.50
2018-09-28T13:57:46.946Z,16.40
2018-09-28T14:00:15.032Z,16.40
2018-09-28T14:02:43.085Z,16.30
2018-09-28T14:05:10.987Z,16.20
2018-09-28T14:07:39.205Z,16.20
2018-09-28T14:10:07.325Z,16.20
2018-09-28T14:12:35.973Z,16.30
2018-09-28T14:15:03.927Z,16.40
2018-09-28T14:17:31.932Z,16.50
2018-09-28T14:19:59.977Z,16.50
2018-09-28T14:22:28.012Z,16.60
2018-09-28T14:24:55.955Z,16.50
2018-09-28T14:27:23.903Z,16.50
2018-09-28T14:29:51.855Z,16.50
2018-09-28T14:32:19.868Z,16.60
2018-09-28T14:34:47.952Z,16.50
2018-09-28T14:37:16.016Z,16.50
2018-09-28T14:39:44.281Z,16.40
2018-09-28T14:42:12.372Z,16.30
2018-09-28T14:44:40.336Z,16.20
2018-09-28T14:47:08.291Z,16.20
2018-09-28T14:49:36.740Z,16.30
2018-09-28T14:52:04.740Z,16.30
2018-09-28T14:54:32.773Z,16.30
2018-09-28T14:57:00.749Z,16.30
2018-09-28T14:59:28.708Z,16.40
2018-09-28T15:01:57.591Z,16.50
2018-09-28T15:04:25.631Z,16.40
2018-09-28T15:06:53.694Z,16.30
2018-09-28T15:09:21.588Z,16.30
2018-09-28T15:11:49.900Z,16.30
2018-09-28T15:14:17.968Z,16.30
2018-09-28T15:16:46.555Z,16.30
2018-09-28T15:19:14.523Z,16.20
2018-09-28T15:21:42.464Z,16.10
2018-09-28T15:24:10.555Z,16.20
2018-09-28T15:26:38.715Z,16.10
2018-09-28T15:29:07.557Z,16.00
2018-09-28T15:31:35.566Z,16.00
2018-09-28T15:34:03.514Z,16.00
2018-09-28T15:36:31.471Z,16.10
2018-09-28T15:38:59.448Z,16.10
2018-09-28T15:41:27.428Z,16.10
2018-09-28T15:43:55.399Z,16.10
2018-09-28T15:46:23.347Z,16.10
2018-09-28T15:48:51.327Z,16.00
2018-09-28T15:51:19.304Z,15.90
2018-09-28T15:53:47.307Z,16.00
2018-09-28T15:56:16.185Z,16.00
2018-09-28T15:58:44.283Z,16.00
2018-09-28T16:01:12.359Z,15.80
2018-09-28T16:03:40.380Z,15.90
2018-09-28T16:06:08.383Z,16.00
2018-09-28T16:08:36.399Z,16.00
2018-09-28T16:11:04.443Z,15.90
2018-09-28T16:13:32.511Z,15.80
2018-09-28T16:16:00.518Z,15.70
2018-09-28T16:18:28.921Z,15.60
2018-09-28T16:20:57.037Z,15.60
2018-09-28T16:23:24.963Z,15.70
2018-09-28T16:25:52.954Z,15.70
2018-09-28T16:28:20.916Z,15.70
2018-09-28T16:30:48.995Z,15.60
2018-09-28T16:33:17.337Z,15.60
2018-09-28T16:35:45.344Z,15.70
2018-09-28T16:38:13.236Z,15.70
2018-09-28T16:40:41.179Z,15.70
2018-09-28T16:43:10.123Z,15.80
2018-09-28T16:45:38.380Z,15.90
2018-09-28T16:48:06.396Z,15.70
2018-09-28T16:50:34.408Z,15.50
2018-09-28T16:53:02.375Z,15.50
2018-09-28T16:55:30.328Z,15.40
2018-09-28T16:57:58.307Z,15.50
2018-09-28T17:00:26.272Z,15.60
2018-09-28T17:02:54.708Z,15.50
2018-09-28T17:05:22.763Z,15.50
2018-09-28T17:07:50.763Z,15.50
2018-09-28T17:10:19.652Z,15.40
2018-09-28T17:12:49.338Z,15.40
2018-09-28T17:15:17.396Z,15.40
2018-09-28T17:17:45.381Z,15.30
2018-09-28T17:20:13.433Z,15.30
2018-09-28T17:22:41.443Z,15.30
2018-09-28T17:25:10.216Z,15.30
2018-09-28T17:27:38.273Z,15.30
2018-09-28T17:30:06.335Z,15.40
2018-09-28T17:32:34.431Z,15.40
2018-09-28T17:35:02.397Z,15.40
2018-09-28T17:37:30.384Z,15.40
2018-09-28T17:39:58.827Z,15.40
2018-09-28T17:42:26.780Z,15.40
2018-09-28T17:44:54.877Z,15.30
2018-09-28T17:47:23.762Z,15.30
2018-09-28T17:49:52.042Z,15.30
2018-09-28T17:52:20.021Z,15.30
2018-09-28T17:54:47.989Z,15.30
2018-09-28T17:57:16.264Z,15.20
2018-09-28T17:59:44.318Z,15.20
2018-09-28T18:02:12.823Z,15.10
2018-09-28T18:04:40.815Z,15.10
2018-09-28T18:07:08.825Z,15.10
2018-09-28T18:09:37.443Z,15.00
2018-09-28T18:12:05.720Z,14.90
2018-09-28T18:14:35.228Z,15.00
2018-09-28T18:17:03.201Z,14.90
2018-09-28T18:19:31.189Z,14.90
2018-09-28T18:21:59.200Z,15.00
2018-09-28T18:24:27.207Z,14.90
2018-09-28T18:26:55.188Z,14.90
2018-09-28T18:29:23.411Z,14.80
2018-09-28T18:31:51.414Z,14.80
2018-09-28T18:34:19.388Z,14.70
2018-09-28T18:36:47.763Z,14.70
2018-09-28T18:39:15.700Z,14.70
2018-09-28T18:41:43.708Z,14.70
2018-09-28T18:44:12.098Z,14.60
2018-09-28T18:46:40.028Z,14.60
2018-09-28T18:49:07.966Z,14.60
2018-09-28T18:51:35.942Z,14.60
2018-09-28T18:54:03.876Z,14.60
2018-09-28T18:56:31.930Z,14.60
2018-09-28T18:58:59.934Z,14.60
2018-09-28T19:01:27.979Z,14.60
2018-09-28T19:03:55.987Z,14.60
2018-09-28T19:06:24.119Z,14.60
2018-09-28T19:08:52.124Z,14.60
2018-09-28T19:11:20.060Z,14.50
2018-09-28T19:13:48.436Z,14.50
2018-09-28T19:16:16.412Z,14.40
2018-09-28T19:18:44.343Z,14.40
2018-09-28T19:21:12.859Z,14.40
2018-09-28T19:23:40.871Z,14.40
2018-09-28T19:26:09.058Z,14.40
2018-09-28T19:28:37.096Z,14.30
2018-09-28T19:31:05.152Z,14.30
2018-09-28T19:33:33.075Z,14.40
2018-09-28T19:36:01.071Z,14.30
2018-09-28T19:38:29.129Z,14.40
2018-09-28T19:40:57.082Z,14.20
2018-09-28T19:43:25.202Z,14.30
2018-09-28T19:45:53.290Z,14.30
2018-09-28T19:48:21.429Z,14.30
2018-09-28T19:50:49.476Z,14.20
2018-09-28T19:53:17.491Z,14.20
2018-09-28T19:55:52.494Z,14.20
2018-09-28T19:58:20.397Z,14.20
2018-09-28T20:00:48.581Z,14.20
2018-09-28T20:03:16.676Z,14.10
2018-09-28T20:05:45.028Z,14.10
2018-09-28T20:08:13.033Z,14.20
2018-09-28T20:10:40.992Z,14.20
2018-09-28T20:13:09.098Z,14.20
2018-09-28T20:15:37.199Z,14.20
2018-09-28T20:18:05.153Z,14.10
2018-09-28T20:20:33.238Z,14.10
2018-09-28T20:23:01.432Z,14.10
2018-09-28T20:25:29.426Z,14.00
2018-09-28T20:27:57.535Z,14.00
2018-09-28T20:32:58.715Z,14.00
2018-09-28T20:35:26.807Z,14.00
2018-09-28T20:37:54.820Z,14.00
2018-09-28T20:40:22.797Z,14.00
2018-09-28T20:42:50.759Z,13.90
2018-09-28T20:45:18.749Z,13.80
2018-09-28T20:47:46.756Z,13.80
2018-09-28T20:50:14.764Z,13.80
2018-09-28T20:52:42.794Z,13.80
2018-09-28T20:55:11.068Z,13.80
2018-09-28T20:57:39.183Z,13.80
2018-09-28T21:00:07.305Z,13.80
2018-09-28T21:02:35.270Z,13.80
2018-09-28T21:05:03.565Z,13.80
2018-09-28T21:07:31.599Z,13.80
2018-09-28T21:09:59.607Z,13.80
2018-09-28T21:12:27.671Z,13.80
2018-09-28T21:14:55.638Z,13.80
2018-09-28T21:17:23.619Z,13.80
2018-09-28T21:19:51.997Z,13.70
2018-09-28T21:22:20.181Z,13.70
2018-09-28T21:24:48.214Z,13.70
2018-09-28T21:27:16.285Z,13.60
2018-09-28T21:29:44.382Z,13.70
2018-09-28T21:32:12.449Z,13.70
2018-09-28T21:34:41.555Z,13.70
2018-09-28T21:37:09.614Z,13.60
2018-09-28T21:39:37.709Z,13.60
2018-09-28T21:42:05.789Z,13.60
2018-09-28T21:44:33.856Z,13.50
2018-09-28T21:47:01.918Z,13.40
2018-09-28T21:49:29.890Z,13.40
2018-09-28T21:51:57.861Z,13.40
2018-09-28T21:54:25.830Z,13.40
2018-09-28T21:56:53.871Z,13.50
2018-09-28T21:59:21.973Z,13.50
2018-09-28T22:01:50.043Z,13.40
2018-09-28T22:04:18.030Z,13.40
2018-09-28T22:06:46.089Z,13.40
2018-09-28T22:09:14.051Z,13.20
2018-09-28T22:11:42.128Z,13.20
2018-09-28T22:14:10.165Z,13.20
2018-09-28T22:16:38.068Z,13.20
2018-09-28T22:19:06.056Z,13.30
2018-09-28T22:21:33.998Z,13.30
2018-09-28T22:24:02.074Z,13.30
2018-09-28T22:26:30.258Z,13.30
2018-09-28T22:28:58.308Z,13.30
2018-09-28T22:31:26.400Z,13.20
2018-09-28T22:33:54.367Z,13.20
2018-09-28T22:36:22.331Z,13.10
2018-09-28T22:38:50.316Z,13.10
2018-09-28T22:41:18.304Z,13.10
2018-09-28T22:43:46.285Z,13.00
2018-09-28T22:46:14.316Z,12.90
2018-09-28T22:48:42.390Z,12.90
2018-09-28T22:51:10.359Z,12.90
2018-09-28T22:53:38.346Z,12.90
2018-09-28T22:56:06.305Z,12.90
2018-09-28T22:58:34.366Z,13.00
2018-09-28T23:01:02.445Z,12.90
2018-09-28T23:03:30.371Z,12.90
2018-09-28T23:05:58.346Z,12.90
2018-09-28T23:08:26.350Z,12.90
2018-09-28T23:10:54.318Z,12.90
2018-09-28T23:13:22.291Z,13.00
2018-09-28T23:15:50.266Z,13.00
2018-09-28T23:18:18.279Z,13.00
2018-09-28T23:20:46.299Z,13.00
2018-09-28T23:23:14.270Z,12.90
2018-09-28T23:25:42.205Z,12.90
2018-09-28T23:28:10.268Z,12.90
2018-09-28T23:30:38.315Z,12.90
2018-09-28T23:33:06.272Z,12.80
2018-09-28T23:35:34.323Z,12.80
2018-09-28T23:38:02.305Z,12.80
2018-09-28T23:40:30.241Z,12.70
2018-09-28T23:42:58.303Z,12.70
2018-09-28T23:45:26.311Z,12.60
2018-09-28T23:47:54.282Z,12.60
2018-09-28T23:50:22.247Z,12.70
2018-09-28T23:52:50.216Z,12.70
2018-09-28T23:55:18.200Z,12.70
2018-09-28T23:57:46.254Z,12.70
